Date,TemperatureHighF,TemperatureAvgF,TemperatureLowF,DewpointHighF,DewpointAvgF,DewpointLowF,HumidityHigh,HumidityAvg,HumidityLow,PressureMaxIn,PressureMinIn,WindSpeedMaxMPH,WindSpeedAvgMPH,GustSpeedMaxMPH,PrecipitationSumIn
2012-1-1,69.3,62.7,52.0,67.6,51.5,35.1,99,70,40,30.44,30.12,17,4,18,0.03
2012-1-2,56.7,48.7,39.9,36.1,28.2,19.9,62,46,24,30.59,30.42,19,5,21,0.02
2012-1-3,52.9,41.2,34.3,29.1,20.2,3.9,74,46,18,30.62,30.41,16,2,16,0.00
2012-1-4,67.5,50.6,31.5,52.9,42.0,27.3,91,74,54,30.41,30.27,13,2,13,0.23
2012-1-5,73.6,56.8,44.2,55.6,50.8,43.2,99,83,51,30.30,30.16,10,1,10,0.01
2012-1-6,73.9,60.3,50.5,61.5,55.2,50.0,99,85,57,30.18,30.05,19,2,19,0.00
2012-1-7,77.4,64.4,54.0,63.1,58.5,53.1,99,83,55,30.11,30.01,14,2,15,0.02
2012-1-8,78.3,67.6,60.6,67.5,62.9,60.1,99,86,60,30.14,30.04,14,2,15,0.00
2012-1-9,73.6,66.6,62.4,65.7,63.5,61.7,99,90,69,30.11,29.94,16,2,16,0.46
2012-1-10,71.8,62.9,49.8,67.8,60.6,43.9,99,92,80,29.95,29.77,20,4,20,0.21
2012-1-11,66.6,55.2,49.8,50.0,45.5,39.0,90,71,39,29.86,29.74,17,3,18,0.00
2012-1-12,57.4,48.4,36.1,55.2,35.3,19.6,96,63,29,30.23,29.74,23,4,24,0.00
2012-1-13,49.8,38.6,28.0,28.8,21.8,15.8,81,54,28,30.36,30.23,11,1,11,0.00
2012-1-14,64.6,46.6,30.6,39.7,29.4,21.6,89,58,21,30.44,30.31,15,2,15,0.00
2012-1-15,67.1,50.6,32.7,47.5,39.3,31.6,98,69,35,30.49,30.34,13,2,13,0.00
2012-1-16,73.6,63.5,53.4,61.5,56.9,46.6,91,79,64,30.35,30.14,20,4,21,0.00
2012-1-17,72.5,67.3,57.7,67.6,64.4,51.3,97,91,79,30.14,30.01,20,5,21,0.39
2012-1-18,62.4,49.7,40.5,51.1,38.2,33.6,87,66,40,30.28,30.09,20,4,21,0.00
2012-1-19,70.3,56.0,38.7,65.5,51.3,36.5,96,85,69,30.13,29.96,13,2,14,0.00
2012-1-20,77.5,71.2,66.7,68.5,66.8,65.1,97,87,71,29.99,29.90,25,6,25,0.00
2012-1-21,80.6,72.0,66.6,69.6,67.4,64.9,97,86,66,29.99,29.89,17,4,17,0.01
2012-1-22,77.5,71.8,67.6,71.1,68.6,65.7,100,90,69,29.96,29.86,20,6,22,0.05
2012-1-23,75.9,69.0,59.7,70.0,58.7,40.3,99,72,46,30.06,29.90,19,4,20,0.35
2012-1-24,62.8,57.1,53.2,54.9,45.6,36.5,93,67,41,30.17,30.05,16,4,16,0.40
2012-1-25,78.6,68.0,59.4,69.6,64.9,54.9,99,90,69,30.05,29.83,24,5,24,0.98
2012-1-26,67.8,60.1,53.1,62.1,55.4,48.4,99,85,63,30.01,29.81,16,3,17,1.29
2012-1-27,67.3,55.0,45.5,48.9,43.1,33.8,96,68,34,30.16,30.00,10,1,10,0.00
2012-1-28,65.5,52.6,43.2,51.8,41.2,29.8,98,69,37,30.38,30.12,18,4,19,0.00
2012-1-29,64.2,49.6,38.8,36.9,30.2,23.9,71,50,23,30.47,30.36,11,2,11,0.00
2012-1-30,66.0,53.4,39.4,52.5,42.8,31.8,87,69,47,30.40,30.26,11,2,11,0.00
2012-1-31,76.6,65.0,55.8,64.6,59.2,52.5,96,82,62,30.26,30.12,16,3,17,0.06
2012-2-1,69.3,64.4,60.3,66.6,63.3,59.7,98,96,90,30.16,30.05,22,2,22,1.42
2012-2-2,73.9,66.1,60.4,67.5,63.9,59.9,100,93,76,30.18,30.06,15,2,15,0.01
2012-2-3,77.5,69.3,65.1,67.6,64.8,63.0,95,86,66,30.13,30.04,24,5,25,0.01
2012-2-4,76.6,66.6,61.3,70.0,64.6,60.6,98,94,75,30.11,30.03,15,2,16,0.15
2012-2-5,61.9,55.8,49.6,61.2,52.4,45.3,99,89,75,30.24,30.09,17,6,21,0.02
2012-2-6,62.1,52.7,45.0,47.1,44.5,41.5,89,75,52,30.27,30.14,15,5,15,0.00
2012-2-7,68.9,56.0,44.4,48.0,45.0,41.7,91,69,41,30.24,30.12,8,2,10,0.00
2012-2-8,63.3,55.3,48.7,46.9,42.8,39.2,83,64,42,30.34,30.22,19,6,22,0.00
2012-2-9,61.2,51.3,42.6,46.0,41.0,38.1,90,69,51,30.34,30.17,15,4,15,0.03
2012-2-10,50.5,48.6,45.7,49.3,47.0,44.8,98,94,87,30.19,30.04,9,1,10,0.49
2012-2-11,48.4,43.2,32.2,47.3,30.6,19.4,98,64,36,30.54,30.16,25,9,26,0.00
2012-2-12,48.7,38.2,28.9,33.1,21.3,15.8,74,52,30,30.61,30.33,17,5,18,0.00
2012-2-13,59.7,51.2,40.6,56.5,40.5,22.3,98,68,44,30.33,29.87,26,5,26,0.58
2012-2-14,66.6,57.0,51.1,58.5,52.5,48.7,99,86,61,30.04,29.88,11,2,11,0.01
2012-2-15,74.5,62.9,52.0,69.1,59.1,48.4,98,88,69,30.10,29.92,24,5,24,0.61
2012-2-16,70.0,65.6,59.4,69.1,61.8,54.7,98,88,70,30.15,29.99,13,4,13,0.00
2012-2-17,72.9,62.5,54.7,59.4,54.9,50.7,94,77,58,30.13,29.97,16,3,16,0.03
2012-2-18,61.5,58.8,56.5,60.8,57.5,55.0,98,96,91,29.99,29.69,19,4,22,1.90
2012-2-19,58.6,52.4,45.1,56.8,47.4,42.4,98,84,65,30.14,29.76,24,4,24,0.01
2012-2-20,63.7,53.6,41.7,51.4,45.4,40.1,96,75,48,30.21,30.11,17,3,19,0.00
2012-2-21,75.9,62.5,51.8,61.3,55.3,49.6,95,79,57,30.20,30.03,12,2,12,0.00
2012-2-22,79.9,67.5,57.7,68.5,63.2,56.8,98,87,64,30.03,29.71,22,4,22,0.00
2012-2-23,78.4,72.2,69.3,69.1,67.2,65.3,91,85,71,29.75,29.63,26,8,28,0.00
2012-2-24,72.5,62.2,52.3,69.4,43.9,24.6,97,55,27,30.30,29.69,28,7,29,0.09
2012-2-25,61.5,53.2,46.9,40.1,30.3,21.2,61,42,23,30.42,30.25,16,4,17,0.00
2012-2-26,61.7,55.7,49.1,54.5,46.4,36.1,93,72,53,30.29,30.18,17,4,17,0.00
2012-2-27,61.5,58.7,54.9,59.7,56.2,52.9,98,91,85,30.30,30.20,20,5,20,0.00
2012-2-28,79.3,68.4,59.9,70.5,65.4,59.4,100,91,73,30.24,30.09,15,4,16,0.01
2012-2-29,81.1,73.3,69.3,69.4,67.9,64.0,96,84,61,30.10,29.97,17,4,18,0.00
2012-3-1,82.4,73.3,69.4,70.5,68.2,65.3,97,85,61,30.00,29.81,18,4,19,0.00
2012-3-2,82.9,74.7,69.8,72.0,69.1,66.6,93,83,63,29.84,29.72,23,7,23,0.04
2012-3-3,73.0,54.8,45.5,70.0,47.3,34.2,95,77,48,30.10,29.73,23,6,23,0.25
2012-3-4,69.4,55.8,39.9,45.0,36.4,28.9,88,53,24,30.25,30.09,16,2,16,0.00
2012-3-5,78.4,62.2,45.3,52.2,44.5,35.8,94,58,22,30.38,30.25,15,1,15,0.00
2012-3-6,75.4,62.4,47.7,57.9,51.5,45.5,96,70,43,30.37,30.23,20,4,20,0.00
2012-3-7,80.4,69.3,60.4,65.8,61.0,55.2,90,76,52,30.25,30.14,21,6,22,0.00
2012-3-8,83.8,74.0,68.4,69.8,67.9,65.5,92,82,62,30.16,30.05,22,6,22,0.00
2012-3-9,71.2,61.0,55.8,68.9,58.6,44.4,98,92,65,30.35,30.09,20,6,20,0.29
2012-3-10,66.2,59.0,52.2,57.7,45.4,38.8,87,61,50,30.31,30.18,16,4,16,0.00
2012-3-11,76.5,68.6,60.1,66.9,63.8,57.4,96,85,69,30.19,30.06,23,5,23,0.05
2012-3-12,69.3,65.0,59.7,68.5,63.1,58.6,98,94,80,30.19,30.06,21,4,21,1.39
2012-3-13,84.6,70.5,57.6,72.1,66.0,57.0,100,87,60,30.23,30.12,11,1,11,0.03
2012-3-14,85.8,74.0,67.5,70.9,67.8,64.9,99,83,53,30.24,30.14,11,2,12,0.00
2012-3-15,85.5,72.5,63.0,70.3,65.3,62.2,99,80,48,30.27,30.15,14,2,15,0.01
2012-3-16,85.5,69.8,62.2,70.3,64.5,61.3,99,86,46,30.22,30.14,13,2,14,0.00
2012-3-20,80.4,75.6,71.6,69.4,68.5,65.7,92,79,63,29.90,29.80,26,-14,32,0.10
2012-3-21,74.1,63.6,54.7,68.9,61.4,53.6,99,93,83,30.02,29.76,33,5,33,2.72
2012-3-22,68.2,56.2,53.1,59.4,54.3,52.2,98,94,71,30.04,29.96,11,2,12,0.12
2012-3-23,83.7,74.1,62.2,62.1,55.3,50.2,82,54,33,30.01,29.94,10,1,11,0.00
2012-3-24,81.0,67.1,55.9,58.8,54.7,49.6,94,68,37,30.02,29.93,16,2,16,0.00
2012-3-25,84.6,68.1,53.4,60.6,55.1,50.7,97,68,33,30.06,29.95,13,1,15,0.00
2012-3-26,84.6,71.2,57.7,62.8,59.4,55.9,95,69,45,30.08,29.97,11,1,11,0.00
2012-3-27,86.2,72.3,58.5,65.1,61.6,57.4,97,72,41,30.12,30.02,10,1,12,0.00
2012-3-28,83.8,72.4,61.7,67.8,63.5,60.3,97,76,48,30.14,29.99,15,2,16,0.01
2012-3-29,85.1,72.1,61.0,69.6,64.3,60.1,99,79,49,30.02,29.88,14,2,16,0.04
2012-3-30,84.0,72.8,64.2,70.0,65.9,61.2,98,81,49,29.94,29.83,13,2,16,0.31
2012-3-31,88.3,72.1,65.1,69.8,66.5,63.7,99,85,47,29.96,29.87,9,1,9,0.00
2012-4-1,89.1,75.8,68.2,71.6,68.8,65.7,100,81,49,29.92,29.80,11,2,12,0.01
2012-4-2,88.3,71.1,65.1,72.9,67.3,61.7,99,89,53,29.88,29.77,18,3,19,0.04
2012-4-3,87.6,71.4,62.2,67.1,62.8,60.3,94,77,47,29.93,29.83,20,2,20,0.00
2012-4-8,85.3,76.5,66.2,63.1,60.4,58.5,81,59,43,30.26,30.13,7,2,11,0.00
2012-4-9,83.7,71.8,63.3,63.7,61.0,57.4,85,70,49,30.15,30.06,11,-9,11,0.00
2012-4-10,85.5,73.1,61.0,64.8,61.5,58.6,93,69,46,30.13,30.02,8,1,9,0.00
2012-4-11,84.4,70.6,61.5,68.5,64.4,60.4,97,82,56,30.12,30.02,16,2,18,0.00
2012-4-12,78.8,68.0,58.5,63.7,56.4,48.4,95,68,47,30.16,30.06,17,3,17,0.00
2012-4-13,83.7,73.0,64.9,68.4,64.6,60.6,92,76,56,30.12,30.03,17,4,20,0.00
2012-4-14,84.7,74.1,64.0,67.3,63.7,60.6,94,72,45,30.10,29.99,27,5,27,0.00
2012-4-15,84.7,76.0,68.5,71.1,68.8,66.4,95,79,61,29.99,29.93,24,6,26,0.00
2012-4-16,83.8,72.7,68.4,72.7,68.9,64.6,98,88,66,30.16,29.97,18,3,22,0.16
2012-4-17,71.4,66.4,57.9,69.3,62.9,54.7,99,89,70,30.14,30.02,24,5,25,0.19
2012-4-18,77.4,65.2,54.0,58.5,55.6,52.3,95,73,49,30.13,30.00,15,5,15,0.00
2012-4-19,83.5,69.3,54.9,58.8,54.6,50.4,92,63,34,30.04,29.87,9,1,9,0.00
2012-4-20,84.6,71.1,57.2,64.2,59.9,56.3,97,71,43,29.91,29.74,10,1,12,0.00
2012-4-21,68.7,62.1,54.0,64.4,57.6,49.8,94,85,74,29.92,29.70,20,7,24,0.03
2012-4-22,79.3,65.0,49.6,54.7,50.9,43.5,94,64,36,30.01,29.86,17,4,19,0.00
2012-4-23,69.3,61.0,52.5,47.5,44.1,38.7,80,55,34,30.13,30.01,22,5,22,0.00
2012-4-24,79.9,63.7,45.9,53.2,47.5,43.3,95,61,30,30.12,29.97,12,2,12,0.00
2012-4-25,85.5,66.5,58.6,64.0,57.4,52.0,88,74,46,30.03,29.96,16,2,16,0.00
2012-4-26,80.1,71.4,66.2,68.2,65.5,64.4,95,82,61,30.03,29.95,15,3,15,0.00
2012-4-27,84.7,74.2,64.8,68.2,65.1,63.0,97,76,50,30.04,29.96,19,4,19,0.00
2012-4-28,86.2,75.6,65.8,68.5,65.2,61.9,96,72,47,30.02,29.95,18,4,21,0.00
2012-4-29,89.1,74.6,65.1,71.2,67.2,63.0,96,80,51,30.09,30.00,16,3,16,0.00
2012-4-30,90.9,83.7,73.9,72.0,67.9,64.4,82,60,46,30.12,30.00,14,3,14,0.00
2012-5-1,88.5,77.8,64.9,72.0,68.4,64.0,99,75,51,30.06,29.92,23,3,23,0.00
2012-5-2,88.7,74.6,69.3,74.8,71.0,67.6,97,89,63,29.96,29.85,20,2,20,0.50
2012-5-3,92.3,79.3,69.1,74.8,71.6,67.6,99,79,52,30.01,29.92,9,1,10,0.09
2012-5-4,91.2,81.0,70.2,74.7,71.4,67.5,98,75,49,30.05,29.94,11,1,12,0.00
2012-5-5,93.4,80.8,70.9,74.5,71.9,69.1,99,77,49,29.99,29.87,16,2,16,0.53
2012-5-6,93.6,79.1,70.5,76.6,72.0,68.4,100,81,50,29.98,29.84,14,1,17,0.12
2012-5-7,89.1,75.3,66.6,73.4,69.4,65.5,99,84,53,29.94,29.79,23,2,23,0.28
2012-5-8,88.9,74.9,65.5,72.9,68.7,64.9,99,83,54,29.93,29.82,11,2,15,0.01
2012-5-9,81.9,73.9,68.5,70.9,67.3,60.3,97,81,62,29.94,29.85,16,4,17,0.00
2012-5-10,85.5,73.5,60.1,61.0,57.5,51.3,92,60,36,29.98,29.87,11,1,12,0.00
2012-5-11,72.3,69.1,66.6,68.2,64.7,60.8,95,86,70,30.02,29.90,16,2,16,0.23
2012-5-12,82.0,72.7,68.4,73.4,69.1,66.7,96,89,73,30.04,29.96,16,2,16,0.04
2012-5-13,80.4,70.8,65.1,67.8,65.2,60.3,98,84,59,30.09,29.99,11,2,11,0.00
2012-5-14,82.2,72.1,62.8,68.2,63.0,59.9,97,75,49,30.06,29.94,16,2,16,0.01
2012-5-15,85.5,73.9,61.9,65.7,61.9,57.6,93,69,42,30.03,29.94,12,2,13,0.00
2012-5-16,86.2,74.7,66.0,67.8,64.6,59.5,94,73,42,30.02,29.91,15,4,17,0.03
2012-5-17,89.1,76.1,61.9,68.9,62.3,55.0,96,67,35,30.00,29.91,13,2,13,0.01
2012-5-18,92.8,78.4,64.6,68.0,62.3,55.6,94,62,32,29.99,29.90,13,2,13,0.00
2012-5-19,90.5,79.4,65.5,68.5,64.4,60.1,93,63,37,30.03,29.94,13,2,14,0.00
2012-5-20,89.1,78.2,66.9,70.5,64.7,59.9,94,66,39,30.10,29.99,15,3,17,0.00
2012-5-21,91.6,78.8,65.8,70.0,66.3,61.9,94,68,40,30.09,29.96,17,1,18,0.01
2012-5-22,91.6,77.8,66.0,71.1,66.9,63.9,94,72,43,30.01,29.84,12,1,12,0.00
2012-5-23,91.4,76.3,70.2,75.0,69.6,65.5,92,81,53,29.88,29.84,10,1,10,0.00
2012-5-24,90.9,84.4,75.4,72.0,69.0,65.8,80,61,45,29.89,29.81,17,-6,18,0.00
2012-5-25,90.9,80.4,69.3,72.7,69.9,66.4,92,72,47,30.06,29.88,17,3,17,0.00
2012-5-26,94.5,81.4,67.3,73.0,68.3,61.9,95,68,36,30.11,29.99,13,2,14,0.00
2012-5-27,96.8,82.6,70.9,75.4,72.2,68.5,95,73,46,30.04,29.90,10,1,12,0.00
2012-5-28,95.4,83.7,72.9,74.7,72.3,69.6,90,71,47,29.96,29.85,10,1,11,0.00
2012-5-29,93.7,82.6,71.4,73.8,70.3,66.2,92,69,43,29.94,29.84,13,2,13,0.00
2012-5-30,96.6,82.6,73.2,77.0,73.3,70.0,95,76,43,29.92,29.77,13,2,13,0.00
2012-5-31,91.8,76.3,67.8,77.0,71.0,65.5,93,84,56,29.87,29.75,23,2,30,0.92
2012-6-1,84.6,75.4,68.2,70.9,63.7,55.0,96,70,40,29.94,29.82,15,4,15,0.92
2012-6-2,92.8,76.6,63.7,69.8,60.3,54.0,85,60,31,30.03,29.92,9,1,9,0.00
2012-6-3,93.6,81.5,70.3,75.4,72.1,68.2,95,75,50,30.01,29.91,14,2,14,0.00
2012-6-4,94.5,82.9,73.6,75.7,73.2,70.7,93,75,49,29.95,29.80,11,2,11,0.00
2012-6-5,97.5,83.9,74.1,76.8,74.5,71.4,95,75,48,29.85,29.68,12,2,14,0.00
2012-6-6,94.5,80.9,70.3,78.1,73.7,65.3,96,80,54,29.92,29.73,24,2,26,1.43
2012-6-7,93.0,76.6,70.7,77.5,70.7,66.9,96,83,59,29.91,29.82,17,2,17,0.86
2012-6-8,85.3,75.2,70.0,77.7,72.1,68.2,96,90,74,29.91,29.82,22,2,22,2.07
2012-6-9,88.0,76.4,71.4,76.5,72.8,68.7,96,89,65,29.86,29.77,30,3,30,0.81
2012-6-10,84.0,77.4,72.3,76.8,73.8,70.9,96,89,75,29.92,29.78,15,2,15,0.07
2012-6-11,93.6,83.6,76.5,80.1,77.5,74.7,95,83,63,30.08,29.92,15,3,15,0.00
2012-6-12,84.6,75.4,69.8,77.2,70.6,67.1,93,85,69,30.16,29.96,22,3,25,0.19
2012-6-13,89.2,79.5,69.6,75.4,72.0,68.4,97,79,58,30.05,29.91,7,1,9,0.00
2012-6-14,89.4,78.1,70.3,76.1,72.6,68.0,96,84,61,30.04,29.93,22,2,25,0.79
2012-6-15,92.8,76.7,68.9,74.7,70.2,67.5,96,82,51,30.06,29.96,19,2,19,0.01
2012-6-16,89.8,79.2,69.4,74.1,69.8,67.1,95,75,50,30.09,29.99,14,3,15,0.01
2012-6-17,87.6,77.7,69.6,74.5,70.5,66.4,92,79,62,30.04,29.91,16,3,16,0.00
2012-6-18,85.1,77.0,73.9,75.4,72.5,70.0,94,86,73,29.98,29.88,20,3,20,0.34
2012-6-19,90.3,81.6,75.0,75.0,71.9,68.2,92,74,50,30.04,29.95,18,4,19,0.00
2012-6-20,90.0,81.2,70.9,73.2,70.4,66.2,94,71,48,30.04,29.96,18,3,20,0.00
2012-6-21,90.0,80.3,70.7,73.2,70.2,67.1,93,73,50,30.01,29.88,14,3,15,0.00
2012-6-22,93.2,82.5,70.3,75.2,70.5,67.3,91,69,48,29.92,29.81,15,2,16,0.00
2012-6-23,96.1,85.2,74.7,76.1,73.8,70.9,94,71,47,29.88,29.81,16,2,16,0.00
2012-6-24,96.8,83.8,75.2,79.0,75.2,72.1,94,76,53,29.90,29.77,14,2,18,0.00
2012-6-25,99.0,86.4,75.6,76.8,71.4,66.4,80,63,35,29.81,29.65,16,2,16,0.00
2012-6-26,99.0,87.5,75.7,76.6,70.8,66.9,85,60,36,29.77,29.67,16,3,16,0.00
2012-6-27,102.0,88.6,77.7,79.5,73.6,66.7,85,63,38,29.98,29.77,14,2,16,0.00
2012-6-28,99.5,87.4,78.8,80.6,76.7,72.5,91,73,45,30.07,29.97,10,1,10,0.00
2012-6-29,98.2,86.1,77.4,79.2,76.1,71.2,94,74,46,30.04,29.89,13,1,14,0.00
2012-6-30,97.2,84.8,75.7,77.9,74.4,65.8,93,73,42,29.96,29.89,15,1,15,0.00
2012-7-1,99.0,85.2,75.6,79.5,75.8,73.4,94,75,48,30.06,29.95,11,1,12,0.00
2012-7-2,96.4,83.9,74.5,77.4,73.4,69.1,92,72,45,30.13,30.00,12,1,14,0.00
2012-7-3,99.7,85.7,75.7,76.3,73.5,70.9,89,69,46,30.07,29.94,15,1,15,0.00
2012-7-4,99.0,83.0,75.0,78.4,74.2,70.2,91,77,46,30.07,29.96,26,1,30,0.05
2012-7-5,98.8,84.6,74.3,77.7,74.9,71.2,95,75,45,30.08,29.95,12,1,12,0.01
2012-7-6,94.1,82.9,75.6,78.8,75.3,72.1,93,79,59,30.04,29.96,33,1,33,0.00
2012-8-3,98.1,86.8,79.3,79.0,76.9,74.1,91,74,50,29.96,29.89,14,2,14,0.00
2012-8-4,93.7,81.4,74.5,79.7,75.7,70.3,95,84,51,30.06,29.91,14,1,15,1.00
2012-8-5,95.0,79.0,73.6,80.8,74.7,71.8,96,88,60,30.11,30.01,15,2,16,0.11
2012-8-6,97.5,81.7,73.0,79.7,74.7,70.9,97,82,46,30.08,29.93,24,2,24,2.06
2012-8-7,92.8,80.9,73.0,81.5,75.9,71.8,97,86,58,30.00,29.90,11,1,11,0.03
2012-8-8,96.8,82.4,75.6,79.9,75.9,72.7,95,82,53,30.01,29.92,19,2,19,0.01
2012-8-9,92.8,79.1,73.0,80.1,74.8,71.1,94,87,63,29.99,29.88,17,2,17,0.42
2012-8-10,92.5,81.9,74.1,83.7,77.2,72.1,95,86,70,29.93,29.78,19,3,19,0.19
2012-8-11,94.3,81.7,73.6,79.9,76.3,70.9,95,85,60,29.98,29.85,13,1,15,0.76
2012-8-12,97.7,83.0,74.8,79.9,76.3,73.0,96,82,47,30.03,29.93,14,1,14,0.00
2012-8-13,95.0,84.9,77.2,80.1,77.5,74.8,93,80,60,30.04,29.91,13,2,15,0.00
2012-8-14,98.4,85.7,77.4,81.3,78.2,75.2,93,80,57,29.99,29.87,13,2,13,0.00
2012-8-15,98.1,85.1,76.5,80.1,77.0,74.3,95,78,50,30.02,29.91,10,1,10,0.00
2012-8-16,95.4,84.1,77.7,80.1,77.1,71.2,94,81,56,30.05,29.93,17,1,19,0.00
2012-8-17,94.1,80.9,72.9,81.0,75.9,69.1,94,86,60,30.02,29.91,18,1,19,0.68
2012-8-18,88.5,75.5,72.1,81.0,73.0,70.0,96,92,76,29.96,29.86,21,1,21,0.94
2012-8-19,78.8,74.5,72.0,74.8,72.5,70.2,96,93,85,29.95,29.79,10,2,10,0.43
2012-8-20,91.2,78.0,69.1,75.7,71.7,67.6,96,82,54,29.91,29.84,10,2,11,0.01
2012-8-21,86.9,77.1,70.2,76.6,71.7,67.6,93,84,66,30.03,29.88,9,2,17,0.22
2012-8-22,90.3,80.2,71.4,71.8,68.2,66.4,91,68,47,30.08,29.99,10,2,13,0.00
2012-8-23,91.8,79.5,69.4,73.9,71.0,67.6,95,77,52,30.08,30.00,12,2,14,0.00
2012-8-24,88.3,77.7,71.8,76.5,73.1,69.4,93,86,64,30.04,29.96,12,2,20,0.26
2012-8-25,92.3,78.1,71.8,77.4,72.4,69.3,94,84,56,30.03,29.95,17,2,20,0.07
2012-8-26,93.9,81.3,71.8,77.4,72.8,68.5,95,78,48,30.08,29.96,8,1,11,0.01
2012-8-27,91.6,81.3,72.7,73.4,70.8,66.2,94,73,44,30.01,29.82,16,4,18,0.00
2012-8-28,88.0,81.4,76.8,76.6,73.2,70.0,81,76,67,29.82,29.53,36,13,36,0.00
2012-8-29,82.6,77.7,75.2,74.7,74.0,73.0,95,89,75,29.53,28.97,54,24,54,1.59
2012-8-30,90.0,78.7,73.6,79.2,74.2,71.8,95,87,64,29.92,29.05,27,8,27,0.55
2012-8-31,87.8,79.3,74.5,80.6,76.2,72.1,94,90,78,30.10,29.91,21,4,21,1.31
2012-9-1,92.7,81.3,75.7,80.1,76.3,73.8,95,86,62,30.15,30.05,17,2,17,0.01
2012-9-2,93.4,82.4,77.2,79.9,77.1,74.5,95,85,63,30.10,29.96,12,2,12,0.00
2012-9-3,95.4,84.4,76.1,79.7,77.0,74.3,95,80,57,30.04,29.91,11,2,11,0.00
2012-9-4,95.7,84.1,75.6,78.1,76.0,73.4,94,78,53,29.99,29.88,14,2,14,0.01
2012-9-5,95.9,84.1,76.5,79.2,76.7,74.3,94,80,56,29.94,29.81,10,1,11,0.00
2012-9-6,97.2,84.2,76.3,79.9,76.7,74.5,95,80,55,29.94,29.82,13,2,14,0.26
2012-9-7,95.5,83.1,74.8,79.7,75.9,73.0,95,80,55,29.92,29.79,8,1,8,0.00
2012-9-8,91.6,80.2,72.5,79.5,74.3,67.8,94,83,67,29.98,29.81,20,4,20,0.00
2012-9-9,82.8,73.4,64.8,67.5,60.8,57.0,84,66,43,30.06,29.95,15,5,16,0.00
2012-9-10,85.5,73.5,61.5,63.3,60.7,57.7,90,67,41,30.11,30.03,14,2,15,0.00
2012-9-11,89.2,76.2,62.2,69.1,64.1,59.7,93,69,42,30.14,30.04,16,2,16,0.00
2012-9-12,93.7,78.9,71.4,74.1,71.0,67.6,93,78,50,30.12,30.01,16,2,16,0.04
2012-9-13,90.9,79.9,72.7,75.4,72.3,67.6,93,79,55,30.14,30.04,20,2,22,0.00
2012-9-14,90.0,79.2,70.5,73.0,69.4,65.8,94,74,47,30.15,30.05,13,2,14,0.01
2012-9-15,89.4,78.8,68.0,70.2,67.5,63.9,90,70,43,30.12,30.02,10,1,10,0.00
2012-9-16,91.9,78.4,69.3,74.8,70.9,66.6,93,79,50,30.04,29.90,17,1,17,0.03
2012-9-17,81.9,75.5,69.6,74.3,72.3,67.6,95,90,76,29.92,29.68,12,1,14,1.27
2012-9-18,83.5,74.3,69.4,71.1,69.1,65.7,96,85,65,30.03,29.77,16,3,16,1.27
2012-9-19,80.1,69.8,62.4,65.8,58.8,55.4,89,70,47,30.10,30.02,14,4,14,0.00
2012-9-20,86.9,71.5,58.5,66.4,60.5,55.0,89,71,44,30.10,29.98,9,1,11,0.00
2012-9-21,92.1,76.7,63.3,70.0,66.0,61.3,94,73,42,30.04,29.94,11,1,11,0.00
2012-9-22,89.1,77.4,66.9,73.8,69.3,64.8,94,78,54,30.10,29.99,9,1,10,0.00
2012-9-23,90.5,78.4,68.2,73.0,70.2,66.0,95,78,51,30.16,30.08,11,1,12,0.00
2012-9-24,90.7,79.7,70.5,74.1,71.0,68.0,93,77,53,30.17,30.04,9,1,9,0.00
2012-9-25,90.1,79.6,70.9,75.4,70.9,67.3,93,76,54,30.11,30.01,13,2,15,0.00
2012-9-26,90.3,78.6,66.7,71.6,68.1,63.7,92,72,44,30.11,30.01,16,2,16,0.00
2012-9-27,88.5,78.3,67.8,74.1,70.1,65.7,94,78,51,30.14,30.00,24,2,24,0.00
2012-9-28,89.8,77.6,71.8,76.5,72.8,69.3,94,86,60,30.06,29.95,12,1,12,0.08
2012-9-29,79.2,75.0,73.0,74.7,72.9,71.2,95,93,85,29.98,29.83,10,1,10,0.64
2012-9-30,83.5,76.0,65.7,77.0,72.9,63.3,95,90,80,29.83,29.51,24,4,24,1.70
2012-10-1,68.5,63.6,59.7,63.1,60.3,57.9,94,89,80,29.79,29.57,17,2,18,0.06
2012-10-2,81.7,68.1,57.2,63.7,59.4,55.4,95,76,44,29.98,29.78,10,1,10,0.00
2012-10-3,84.7,71.6,60.1,68.7,63.8,58.3,95,78,52,30.11,29.97,13,1,14,0.00
2012-10-4,88.5,75.4,64.2,72.1,65.8,61.9,94,75,46,30.20,30.10,12,1,12,0.00
2012-10-5,89.8,74.7,64.8,73.4,65.9,62.6,96,77,43,30.14,29.99,11,1,11,0.00
2012-10-6,81.9,71.1,59.4,71.8,65.8,55.8,95,84,70,30.06,29.95,18,3,18,0.01
2012-10-7,64.8,57.7,54.0,55.8,52.7,50.4,91,84,71,30.15,30.05,16,7,17,0.00
2012-10-8,68.2,58.8,51.6,54.0,50.9,47.1,88,76,59,30.19,30.08,16,5,16,0.00
2012-10-9,78.4,63.2,51.1,59.5,54.6,48.2,91,75,50,30.16,30.00,8,1,8,0.00
2012-10-10,85.1,72.6,58.5,69.4,64.3,55.8,93,77,55,30.16,30.05,10,1,10,0.00
2012-10-11,88.0,75.1,63.3,69.1,65.1,61.0,94,73,48,30.22,30.12,12,1,13,0.00
2012-10-12,87.6,74.1,61.0,69.4,65.7,59.0,95,77,51,30.24,30.15,11,1,11,0.00
2012-10-13,87.1,75.8,66.7,72.3,68.1,64.6,94,78,53,30.20,30.05,18,3,18,0.01
2012-10-14,89.1,77.7,71.1,74.5,71.1,68.5,93,81,56,30.13,29.97,12,2,12,0.00
2012-10-15,80.8,71.6,59.9,71.6,63.4,55.8,95,77,49,30.04,29.92,10,3,13,0.24
2012-10-16,80.4,68.6,56.5,65.1,57.8,53.2,90,70,47,29.99,29.83,15,2,15,0.00
2012-10-17,85.5,74.5,62.4,72.1,67.1,59.4,92,78,62,29.84,29.69,15,3,16,0.00
2012-10-18,80.4,72.7,59.2,72.5,56.7,40.8,95,62,25,29.93,29.71,22,4,23,0.00
2012-10-19,81.3,65.5,52.2,54.9,46.9,34.0,90,58,20,29.97,29.87,15,1,15,0.00
2012-10-20,85.3,65.8,48.7,57.2,49.9,40.1,93,63,23,30.01,29.91,8,0,8,0.00
2012-10-21,85.8,69.7,54.7,64.0,58.1,51.8,93,70,41,30.08,29.96,15,2,15,0.00
2012-10-22,84.9,71.5,58.5,66.7,62.6,55.6,93,76,45,30.12,30.01,16,2,16,0.00
2012-10-23,86.5,74.7,65.1,69.1,66.2,63.0,94,77,48,30.07,29.97,14,2,14,0.01
2012-10-24,86.5,75.0,66.4,70.7,66.5,63.1,95,77,50,30.07,29.95,13,2,13,0.01
2012-10-25,87.1,74.6,66.0,69.1,66.1,63.3,94,77,47,30.00,29.90,12,1,12,0.00
2012-10-26,83.5,68.4,53.4,71.4,62.8,48.6,96,83,61,30.07,29.92,19,4,20,0.01
2012-10-27,60.1,53.0,48.6,48.9,45.4,39.6,86,76,64,30.09,30.00,19,7,19,0.00
2012-10-28,63.3,51.4,39.7,41.0,38.8,36.5,89,64,39,30.17,30.06,18,4,20,0.00
2012-10-29,63.3,51.8,42.4,39.6,37.1,32.9,81,60,33,30.24,30.09,20,4,20,0.00
2012-10-30,70.7,53.8,38.1,46.8,39.4,34.9,92,63,28,30.13,29.98,13,1,14,0.00
2012-10-31,81.3,63.1,45.5,61.9,54.0,43.0,93,75,45,30.06,29.93,13,2,14,0.00
2012-11-1,84.4,67.1,53.8,61.7,58.5,52.2,96,76,42,30.07,29.96,8,0,8,0.01
2012-11-2,86.2,72.4,60.1,70.5,64.8,57.7,95,79,48,30.09,29.99,11,2,11,0.00
2012-11-3,86.5,70.9,56.8,68.9,62.8,55.2,97,78,46,30.14,30.02,11,1,11,0.01
2012-11-4,73.0,65.3,58.6,68.2,62.1,56.3,95,90,80,30.11,30.03,12,1,12,0.01
2012-11-5,74.7,64.4,55.8,65.5,59.6,52.7,95,85,70,30.07,29.89,14,2,15,0.06
2012-11-6,64.6,56.4,47.7,56.1,51.1,45.1,95,83,59,30.08,29.96,17,3,18,0.00
2012-11-7,69.4,55.7,42.3,51.1,42.6,36.1,95,66,33,30.17,30.01,20,2,20,0.01
2012-11-8,69.3,55.6,44.2,46.8,41.7,37.8,79,61,36,30.27,30.16,12,2,12,0.00
2012-11-9,75.4,60.9,43.5,57.7,51.3,40.3,91,72,50,30.24,30.13,14,2,14,0.00
2012-11-10,79.3,67.1,55.6,61.7,57.9,52.3,89,74,51,30.21,30.10,24,4,24,0.00
2012-11-11,80.4,71.5,63.9,67.6,62.9,57.6,94,75,57,30.12,30.02,22,6,26,0.21
2012-11-12,69.8,58.2,43.9,67.8,51.2,37.6,94,78,59,30.39,30.08,23,7,24,0.25
2012-11-13,58.3,48.2,38.5,38.5,35.0,30.6,86,62,39,30.45,30.29,20,5,20,0.00
2012-11-14,61.9,49.7,39.2,38.1,35.8,32.2,84,61,34,30.37,30.24,17,4,17,0.00
2012-11-15,63.7,50.4,37.6,44.4,39.6,34.0,88,68,40,30.32,30.19,11,2,12,0.00
2012-11-16,65.5,54.1,43.5,44.4,42.4,40.1,89,67,40,30.32,30.22,17,4,17,0.00
2012-11-17,68.4,53.8,40.3,44.2,40.3,36.1,87,63,33,30.37,30.25,12,2,12,0.00
2012-11-18,68.9,54.1,39.6,44.6,41.4,36.7,90,65,36,30.33,30.23,11,1,11,0.00
2012-11-19,72.9,57.5,44.4,51.8,46.8,40.6,89,70,42,30.30,30.16,9,1,9,0.00
2012-11-20,72.9,57.5,44.8,54.0,46.7,41.9,94,71,34,30.22,30.11,11,1,12,0.00
2012-11-21,62.6,49.4,46.0,52.7,46.0,43.9,93,88,71,30.23,30.16,6,0,6,0.00
2012-11-27,53.1,49.0,46.0,51.3,46.8,43.9,94,92,91,30.33,30.19,16,6,17,0.36
2012-11-28,63.1,50.9,43.7,44.8,40.6,35.1,95,71,36,30.44,30.31,13,4,14,0.00
2012-11-29,68.2,53.9,40.3,52.7,44.4,34.3,92,71,47,30.35,30.21,11,2,11,0.00
2012-11-30,74.7,60.6,48.0,58.8,52.5,45.5,93,76,51,30.27,30.16,10,1,10,0.00
2012-12-1,77.5,64.0,48.9,63.5,56.9,46.8,95,79,55,30.25,30.14,10,2,14,0.01
2012-12-2,81.0,68.8,59.5,66.2,61.6,57.6,94,80,53,30.25,30.15,14,2,14,0.01
2012-12-3,79.5,69.2,59.7,67.1,61.9,56.8,92,79,54,30.19,30.09,22,3,22,0.00
2012-12-4,70.2,65.8,62.4,68.2,63.6,61.0,95,93,89,30.22,30.11,13,1,15,0.81
2012-12-5,63.3,61.5,59.9,61.0,59.7,57.9,95,94,90,30.15,30.02,16,4,16,0.17
2012-12-6,68.5,63.9,61.3,63.9,61.5,59.9,95,92,82,30.03,29.92,7,1,7,0.04
2012-12-7,75.6,65.4,58.5,64.2,59.3,55.6,97,82,55,29.98,29.87,9,1,9,0.00
2012-12-8,78.1,65.6,54.5,64.4,59.5,53.1,96,82,62,29.99,29.89,12,1,12,0.01
2012-12-9,81.3,69.6,61.2,71.1,65.1,58.6,93,86,58,29.99,29.87,17,3,17,0.00
2012-12-10,71.8,58.6,44.2,68.9,55.6,41.2,95,90,83,30.04,29.75,21,4,21,1.67
2012-12-11,48.7,43.5,38.5,42.3,36.4,32.7,91,77,59,30.19,30.02,17,5,17,0.00
2012-12-12,56.1,45.4,37.8,36.7,31.0,21.2,87,61,27,30.32,30.18,14,3,15,0.00
2012-12-13,62.8,47.2,33.6,38.7,33.7,28.8,86,62,36,30.38,30.24,12,2,13,0.00
2012-12-14,69.1,53.0,35.8,54.7,46.4,33.1,94,80,55,30.29,30.06,16,3,17,0.00
2012-12-15,76.3,65.4,56.8,65.8,59.9,52.9,90,83,69,30.08,29.93,14,3,16,0.00
2012-12-16,77.2,66.0,61.3,68.0,62.5,59.0,94,89,71,29.94,29.79,19,3,20,0.44
2012-12-17,71.2,61.7,52.0,63.1,56.0,44.1,96,83,51,29.93,29.77,13,1,14,0.97
2012-12-18,72.3,57.2,42.3,50.2,46.4,39.7,94,70,40,30.02,29.92,11,2,12,0.00
2012-12-19,78.1,65.2,51.3,69.8,59.8,48.4,94,84,60,30.00,29.80,19,4,21,0.09
2012-12-20,74.7,57.7,41.7,70.7,44.2,26.2,91,62,40,30.33,29.78,25,4,31,0.19
2012-12-21,57.0,44.3,34.0,32.7,25.1,17.6,77,50,23,30.49,30.33,13,1,13,0.00
2012-12-22,65.1,48.6,32.9,41.2,32.9,25.2,91,60,22,30.43,30.23,10,1,10,0.00
2012-12-23,67.3,58.8,47.8,60.3,52.1,39.7,88,78,69,30.23,29.95,15,3,15,0.00
2012-12-24,80.1,68.1,59.0,66.9,60.1,53.2,93,77,45,29.95,29.83,14,2,14,0.05
2012-12-25,74.8,63.5,45.3,67.1,58.4,38.3,96,84,69,29.84,29.45,35,6,35,0.57
2012-12-26,45.3,40.8,37.2,38.5,34.7,32.2,85,79,74,30.18,29.82,18,4,20,0.00
2012-12-27,37.0,36.2,35.4,33.3,32.8,32.0,88,87,86,30.14,30.11,8,2,8,0.00
2012-12-28,68.7,58.5,46.6,64.2,55.6,42.1,95,90,84,30.03,29.70,19,5,24,1.34
2012-12-29,48.7,43.4,38.7,41.9,34.0,28.8,87,70,49,30.44,30.03,20,4,20,0.00
2012-12-30,52.9,41.4,31.1,32.7,28.6,26.4,85,62,38,30.54,30.32,15,4,18,0.00
2012-12-31,61.3,53.0,42.6,54.1,44.5,30.7,89,73,61,30.32,30.01,17,3,17,0.00
2013-1-1,67.3,57.3,48.0,63.0,55.1,45.9,95,92,86,30.13,29.90,18,4,18,1.21